AAY394 KMCI-KJKA
Flight info
| Callsign | AAY394 |
|---|---|
| Flight time | 1h 31m |
| Altitude | 35000 |
| Route | RACER8 BUM LIT MHZ BFM VUSRY |
| Aircraft | A320/M-SDE3FGHIRWY/LB1 |
Departure
| Time | 2026-04-17 00:32 |
|---|---|
| Airport | Kansas City International Airport (KMCI) |
Arrival
| Time | 2026-04-17 02:04 |
|---|---|
| Airport | Jack Edwards National Airport (KJKA) |
| Time | Latitude | Longitude | Altitude | Speed | Heading |
|---|---|---|---|---|---|
| 2026-04-17 00:09 | 39.29711 | -94.72053 | 1015 ft | 0 kts | 102° |
| 2026-04-17 00:22 | 39.29711 | -94.72055 | 1014 ft | 2 kts | 102° |
| 2026-04-17 00:22 | 39.29716 | -94.72087 | 1014 ft | 4 kts | 102° |
| 2026-04-17 00:22 | 39.29724 | -94.72115 | 1014 ft | 4 kts | 152° |
| 2026-04-17 00:23 | 39.29741 | -94.72117 | 1014 ft | 3 kts | 193° |
| 2026-04-17 00:23 | 39.29755 | -94.72113 | 1014 ft | 0 kts | 193° |
| 2026-04-17 00:25 | 39.29738 | -94.72119 | 1014 ft | 8 kts | 194° |
| 2026-04-17 00:25 | 39.29659 | -94.72168 | 1014 ft | 16 kts | 223° |
| 2026-04-17 00:25 | 39.29577 | -94.72266 | 1014 ft | 15 kts | 222° |
| 2026-04-17 00:26 | 39.29559 | -94.72360 | 1014 ft | 11 kts | 283° |
| 2026-04-17 00:26 | 39.29576 | -94.72452 | 1014 ft | 10 kts | 284° |
| 2026-04-17 00:26 | 39.29598 | -94.72557 | 1014 ft | 14 kts | 299° |
| 2026-04-17 00:26 | 39.29727 | -94.72542 | 1015 ft | 23 kts | 12° |
| 2026-04-17 00:27 | 39.29880 | -94.72499 | 1015 ft | 21 kts | 13° |
| 2026-04-17 00:27 | 39.30018 | -94.72458 | 1015 ft | 20 kts | 13° |
| 2026-04-17 00:27 | 39.30149 | -94.72418 | 1014 ft | 19 kts | 13° |
| 2026-04-17 00:27 | 39.30285 | -94.72376 | 1014 ft | 24 kts | 12° |
| 2026-04-17 00:28 | 39.30452 | -94.72330 | 1014 ft | 25 kts | 13° |
| 2026-04-17 00:28 | 39.30615 | -94.72282 | 1014 ft | 24 kts | 12° |
| 2026-04-17 00:28 | 39.30772 | -94.72237 | 1014 ft | 22 kts | 13° |
| 2026-04-17 00:28 | 39.30918 | -94.72193 | 1014 ft | 21 kts | 13° |
| 2026-04-17 00:29 | 39.31055 | -94.72151 | 1014 ft | 20 kts | 13° |
| 2026-04-17 00:29 | 39.31200 | -94.72107 | 1014 ft | 24 kts | 12° |
| 2026-04-17 00:29 | 39.31363 | -94.72060 | 1014 ft | 24 kts | 13° |
| 2026-04-17 00:29 | 39.31522 | -94.72013 | 1014 ft | 23 kts | 13° |
| 2026-04-17 00:30 | 39.31672 | -94.71968 | 1014 ft | 21 kts | 13° |
| 2026-04-17 00:30 | 39.31810 | -94.71928 | 1014 ft | 19 kts | 12° |
| 2026-04-17 00:30 | 39.31934 | -94.71892 | 1015 ft | 17 kts | 12° |
| 2026-04-17 00:30 | 39.32047 | -94.71857 | 1015 ft | 16 kts | 13° |
| 2026-04-17 00:31 | 39.32149 | -94.71841 | 1015 ft | 14 kts | 340° |
| 2026-04-17 00:31 | 39.32189 | -94.71940 | 1015 ft | 12 kts | 282° |
| 2026-04-17 00:31 | 39.32205 | -94.72037 | 1016 ft | 10 kts | 281° |
| 2026-04-17 00:31 | 39.32169 | -94.72097 | 1016 ft | 11 kts | 195° |
| 2026-04-17 00:32 | 39.31942 | -94.72162 | 1015 ft | 68 kts | 193° |
| 2026-04-17 00:32 | 39.31262 | -94.72364 | 1015 ft | 130 kts | 193° |
| 2026-04-17 00:32 | 39.30215 | -94.72672 | 1046 ft | 174 kts | 191° |
| 2026-04-17 00:32 | 39.29026 | -94.73016 | 1700 ft | 176 kts | 192° |
| 2026-04-17 00:33 | 39.27830 | -94.73359 | 2483 ft | 175 kts | 191° |
| 2026-04-17 00:33 | 39.26615 | -94.73739 | 3017 ft | 189 kts | 192° |
| 2026-04-17 00:33 | 39.25245 | -94.74036 | 3316 ft | 212 kts | 176° |
| 2026-04-17 00:33 | 39.23727 | -94.73587 | 3702 ft | 236 kts | 166° |
| 2026-04-17 00:34 | 39.22069 | -94.73094 | 4370 ft | 250 kts | 168° |
| 2026-04-17 00:34 | 39.20346 | -94.72648 | 5257 ft | 255 kts | 170° |
| 2026-04-17 00:34 | 39.18574 | -94.72203 | 6069 ft | 264 kts | 171° |
| 2026-04-17 00:34 | 39.16735 | -94.71740 | 6804 ft | 273 kts | 171° |
| 2026-04-17 00:35 | 39.14859 | -94.71256 | 7658 ft | 277 kts | 172° |
| 2026-04-17 00:35 | 39.12950 | -94.70757 | 8510 ft | 282 kts | 172° |
| 2026-04-17 00:35 | 39.11017 | -94.70244 | 9375 ft | 286 kts | 172° |
| 2026-04-17 00:35 | 39.09047 | -94.69717 | 9966 ft | 290 kts | 172° |
| 2026-04-17 00:36 | 39.07017 | -94.69176 | 10393 ft | 310 kts | 172° |
| 2026-04-17 00:36 | 39.04830 | -94.68597 | 10672 ft | 332 kts | 172° |
| 2026-04-17 00:36 | 39.02534 | -94.67986 | 11263 ft | 341 kts | 172° |
| 2026-04-17 00:36 | 39.00199 | -94.67359 | 12016 ft | 345 kts | 171° |
| 2026-04-17 00:37 | 38.97831 | -94.66720 | 12767 ft | 350 kts | 171° |
| 2026-04-17 00:37 | 38.95436 | -94.66072 | 13686 ft | 354 kts | 171° |
| 2026-04-17 00:37 | 38.93013 | -94.65418 | 14368 ft | 358 kts | 171° |
| 2026-04-17 00:37 | 38.90559 | -94.64754 | 15021 ft | 362 kts | 171° |
| 2026-04-17 00:38 | 38.88079 | -94.64085 | 15668 ft | 366 kts | 171° |
| 2026-04-17 00:38 | 38.85576 | -94.63413 | 16319 ft | 370 kts | 171° |
| 2026-04-17 00:38 | 38.83044 | -94.62734 | 16955 ft | 374 kts | 171° |
| 2026-04-17 00:38 | 38.80485 | -94.62049 | 17590 ft | 377 kts | 172° |
| 2026-04-17 00:39 | 38.77901 | -94.61361 | 18208 ft | 381 kts | 172° |
| 2026-04-17 00:39 | 38.75292 | -94.60668 | 18758 ft | 385 kts | 172° |
| 2026-04-17 00:39 | 38.72657 | -94.59965 | 19288 ft | 389 kts | 172° |
| 2026-04-17 00:39 | 38.69995 | -94.59255 | 19818 ft | 392 kts | 172° |
| 2026-04-17 00:40 | 38.67305 | -94.58552 | 20354 ft | 396 kts | 172° |
| 2026-04-17 00:40 | 38.64592 | -94.57877 | 20803 ft | 399 kts | 173° |
| 2026-04-17 00:40 | 38.61850 | -94.57218 | 21350 ft | 403 kts | 173° |
| 2026-04-17 00:40 | 38.59078 | -94.56560 | 21877 ft | 407 kts | 173° |
| 2026-04-17 00:41 | 38.56284 | -94.55895 | 22398 ft | 411 kts | 173° |
| 2026-04-17 00:41 | 38.53456 | -94.55218 | 22895 ft | 415 kts | 173° |
| 2026-04-17 00:41 | 38.50609 | -94.54526 | 23394 ft | 419 kts | 173° |
| 2026-04-17 00:41 | 38.47735 | -94.53822 | 23818 ft | 422 kts | 173° |
| 2026-04-17 00:42 | 38.44841 | -94.53112 | 24231 ft | 425 kts | 173° |
| 2026-04-17 00:42 | 38.41926 | -94.52399 | 24640 ft | 428 kts | 173° |
| 2026-04-17 00:42 | 38.38990 | -94.51682 | 25039 ft | 430 kts | 173° |
| 2026-04-17 00:42 | 38.36042 | -94.50967 | 25429 ft | 433 kts | 174° |
| 2026-04-17 00:43 | 38.33072 | -94.50250 | 25808 ft | 436 kts | 174° |
| 2026-04-17 00:43 | 38.30086 | -94.49525 | 26182 ft | 438 kts | 173° |
| 2026-04-17 00:43 | 38.27127 | -94.48461 | 26551 ft | 447 kts | 163° |
| 2026-04-17 00:43 | 38.24325 | -94.46798 | 26905 ft | 454 kts | 155° |
| 2026-04-17 00:44 | 38.21565 | -94.44816 | 27249 ft | 457 kts | 155° |
| 2026-04-17 00:44 | 38.18780 | -94.42831 | 27609 ft | 460 kts | 155° |
| 2026-04-17 00:44 | 38.15977 | -94.40845 | 27961 ft | 462 kts | 155° |
| 2026-04-17 00:44 | 38.13159 | -94.38853 | 28298 ft | 465 kts | 155° |
| 2026-04-17 00:45 | 38.10324 | -94.36855 | 28598 ft | 468 kts | 155° |
| 2026-04-17 00:45 | 38.07469 | -94.34847 | 28891 ft | 471 kts | 156° |
| 2026-04-17 00:45 | 38.04591 | -94.32820 | 29179 ft | 474 kts | 156° |
| 2026-04-17 00:45 | 38.01702 | -94.30782 | 29497 ft | 476 kts | 156° |
| 2026-04-17 00:46 | 37.98800 | -94.28734 | 29796 ft | 479 kts | 156° |
| 2026-04-17 00:46 | 37.95885 | -94.26673 | 30078 ft | 481 kts | 156° |
| 2026-04-17 00:46 | 37.92957 | -94.24606 | 30304 ft | 483 kts | 156° |
| 2026-04-17 00:46 | 37.90015 | -94.22537 | 30541 ft | 485 kts | 156° |
| 2026-04-17 00:47 | 37.87056 | -94.20462 | 30732 ft | 488 kts | 156° |
| 2026-04-17 00:47 | 37.84079 | -94.18378 | 30927 ft | 489 kts | 156° |
| 2026-04-17 00:47 | 37.81097 | -94.16289 | 31209 ft | 489 kts | 156° |
| 2026-04-17 00:47 | 37.78120 | -94.14205 | 31529 ft | 489 kts | 156° |
| 2026-04-17 00:48 | 37.75151 | -94.12122 | 31829 ft | 488 kts | 156° |
| 2026-04-17 00:48 | 37.73185 | -94.10743 | 32038 ft | 488 kts | 156° |
| 2026-04-17 00:48 | 37.69212 | -94.07961 | 32440 ft | 488 kts | 156° |
| 2026-04-17 00:48 | 37.67244 | -94.06587 | 32630 ft | 488 kts | 156° |
| 2026-04-17 00:49 | 37.64272 | -94.04517 | 32908 ft | 488 kts | 157° |
| 2026-04-17 00:49 | 37.61295 | -94.02449 | 33150 ft | 489 kts | 157° |
| 2026-04-17 00:49 | 37.58313 | -94.00380 | 33421 ft | 490 kts | 157° |
| 2026-04-17 00:49 | 37.55328 | -93.98310 | 33702 ft | 490 kts | 157° |
| 2026-04-17 00:50 | 37.52342 | -93.96240 | 33996 ft | 490 kts | 157° |
| 2026-04-17 00:50 | 37.49361 | -93.94170 | 34249 ft | 490 kts | 157° |
| 2026-04-17 00:50 | 37.46378 | -93.92096 | 34507 ft | 490 kts | 157° |
| 2026-04-17 00:50 | 37.43394 | -93.90026 | 34774 ft | 489 kts | 157° |
| 2026-04-17 00:51 | 37.40412 | -93.87962 | 34899 ft | 490 kts | 158° |
| 2026-04-17 00:51 | 37.37427 | -93.85897 | 34945 ft | 489 kts | 158° |
| 2026-04-17 00:51 | 37.31471 | -93.81778 | 34950 ft | 488 kts | 158° |
| 2026-04-17 00:52 | 37.25529 | -93.77677 | 34958 ft | 486 kts | 158° |
| 2026-04-17 00:52 | 37.19605 | -93.73608 | 34971 ft | 485 kts | 158° |
| 2026-04-17 00:53 | 37.13678 | -93.69534 | 34978 ft | 487 kts | 158° |
| 2026-04-17 00:53 | 37.07724 | -93.65446 | 34981 ft | 488 kts | 158° |
| 2026-04-17 00:54 | 37.01765 | -93.61368 | 34974 ft | 488 kts | 158° |
| 2026-04-17 00:54 | 36.95808 | -93.57304 | 34975 ft | 488 kts | 158° |
| 2026-04-17 00:55 | 36.89848 | -93.53238 | 34961 ft | 488 kts | 159° |
| 2026-04-17 00:55 | 36.83877 | -93.49179 | 34970 ft | 489 kts | 159° |
| 2026-04-17 00:56 | 36.77901 | -93.45121 | 34978 ft | 489 kts | 159° |
| 2026-04-17 00:56 | 36.71957 | -93.41087 | 34981 ft | 490 kts | 159° |
| 2026-04-17 00:57 | 36.65957 | -93.37030 | 34974 ft | 492 kts | 159° |
| 2026-04-17 00:57 | 36.59933 | -93.32957 | 34980 ft | 493 kts | 159° |
| 2026-04-17 00:58 | 36.53897 | -93.28878 | 35013 ft | 494 kts | 159° |
| 2026-04-17 00:58 | 36.47862 | -93.24809 | 35013 ft | 494 kts | 159° |
| 2026-04-17 00:59 | 36.41819 | -93.20751 | 34993 ft | 494 kts | 160° |
| 2026-04-17 00:59 | 36.35788 | -93.16709 | 35000 ft | 494 kts | 160° |
| 2026-04-17 01:00 | 36.29729 | -93.12653 | 35007 ft | 495 kts | 160° |
| 2026-04-17 01:00 | 36.23672 | -93.08599 | 35010 ft | 495 kts | 160° |
| 2026-04-17 01:01 | 36.17615 | -93.04554 | 35001 ft | 495 kts | 160° |
| 2026-04-17 01:01 | 36.11558 | -93.00509 | 35003 ft | 495 kts | 160° |
| 2026-04-17 01:02 | 36.05494 | -92.96482 | 34999 ft | 495 kts | 160° |
| 2026-04-17 01:02 | 35.99425 | -92.92451 | 34995 ft | 495 kts | 160° |
| 2026-04-17 01:03 | 35.93352 | -92.88424 | 35000 ft | 495 kts | 160° |
| 2026-04-17 01:03 | 35.87280 | -92.84411 | 35003 ft | 495 kts | 160° |
| 2026-04-17 01:04 | 35.81211 | -92.80403 | 35002 ft | 495 kts | 160° |
| 2026-04-17 01:04 | 35.75134 | -92.76397 | 35005 ft | 495 kts | 160° |
| 2026-04-17 01:05 | 35.69061 | -92.72404 | 34988 ft | 495 kts | 161° |
| 2026-04-17 01:05 | 35.62997 | -92.68419 | 35009 ft | 494 kts | 161° |
| 2026-04-17 01:06 | 35.56937 | -92.64443 | 35016 ft | 493 kts | 161° |
| 2026-04-17 01:06 | 35.50918 | -92.60503 | 35010 ft | 494 kts | 161° |
| 2026-04-17 01:07 | 35.44855 | -92.56542 | 34983 ft | 493 kts | 161° |
| 2026-04-17 01:07 | 35.38807 | -92.52591 | 35002 ft | 492 kts | 161° |
| 2026-04-17 01:08 | 35.32762 | -92.48653 | 35014 ft | 492 kts | 161° |
| 2026-04-17 01:08 | 35.26725 | -92.44722 | 35018 ft | 492 kts | 161° |
| 2026-04-17 01:09 | 35.20688 | -92.40793 | 34995 ft | 491 kts | 161° |
| 2026-04-17 01:09 | 35.14669 | -92.36891 | 35018 ft | 489 kts | 161° |
| 2026-04-17 01:10 | 35.08680 | -92.33026 | 35023 ft | 488 kts | 161° |
| 2026-04-17 01:10 | 35.02684 | -92.29156 | 35028 ft | 487 kts | 161° |
| 2026-04-17 01:11 | 34.96692 | -92.25288 | 34981 ft | 488 kts | 161° |
| 2026-04-17 01:11 | 34.90695 | -92.21424 | 35001 ft | 487 kts | 161° |
| 2026-04-17 01:12 | 34.84708 | -92.17574 | 35013 ft | 487 kts | 161° |
| 2026-04-17 01:12 | 34.78860 | -92.13302 | 35018 ft | 498 kts | 152° |
| 2026-04-17 01:13 | 34.73278 | -92.08315 | 35023 ft | 498 kts | 152° |
| 2026-04-17 01:13 | 34.67706 | -92.03328 | 35019 ft | 497 kts | 152° |
| 2026-04-17 01:14 | 34.62145 | -91.98379 | 35034 ft | 495 kts | 152° |
| 2026-04-17 01:14 | 34.56589 | -91.93446 | 35043 ft | 494 kts | 152° |
| 2026-04-17 01:15 | 34.51044 | -91.88523 | 35032 ft | 494 kts | 152° |
| 2026-04-17 01:15 | 34.45501 | -91.83606 | 35001 ft | 494 kts | 152° |
| 2026-04-17 01:16 | 34.39952 | -91.78709 | 35024 ft | 493 kts | 152° |
| 2026-04-17 01:16 | 34.34417 | -91.73830 | 35031 ft | 493 kts | 152° |
| 2026-04-17 01:17 | 34.28881 | -91.68949 | 35034 ft | 492 kts | 152° |
| 2026-04-17 01:17 | 34.23350 | -91.64083 | 35041 ft | 492 kts | 152° |
| 2026-04-17 01:18 | 34.17821 | -91.59219 | 35014 ft | 491 kts | 152° |
| 2026-04-17 01:18 | 34.12294 | -91.54369 | 35022 ft | 491 kts | 152° |
| 2026-04-17 01:19 | 34.06767 | -91.49535 | 35030 ft | 491 kts | 152° |
| 2026-04-17 01:19 | 34.01264 | -91.44740 | 35034 ft | 491 kts | 152° |
| 2026-04-17 01:20 | 33.95692 | -91.39880 | 35033 ft | 491 kts | 152° |
| 2026-04-17 01:20 | 33.90192 | -91.35083 | 35021 ft | 491 kts | 152° |
| 2026-04-17 01:21 | 33.84657 | -91.30266 | 35033 ft | 491 kts | 152° |
| 2026-04-17 01:21 | 33.79121 | -91.25458 | 35039 ft | 491 kts | 152° |
| 2026-04-17 01:22 | 33.73585 | -91.20651 | 35046 ft | 491 kts | 152° |
| 2026-04-17 01:22 | 33.68050 | -91.15863 | 35033 ft | 490 kts | 152° |
| 2026-04-17 01:23 | 33.62516 | -91.11089 | 35026 ft | 490 kts | 152° |
| 2026-04-17 01:23 | 33.56981 | -91.06317 | 35035 ft | 489 kts | 152° |
| 2026-04-17 01:24 | 33.51458 | -91.01550 | 35037 ft | 489 kts | 152° |
| 2026-04-17 01:24 | 33.45933 | -90.96787 | 35038 ft | 489 kts | 152° |
| 2026-04-17 01:25 | 33.40404 | -90.92039 | 35053 ft | 489 kts | 152° |
| 2026-04-17 01:25 | 33.34874 | -90.87302 | 35057 ft | 489 kts | 152° |
| 2026-04-17 01:26 | 33.29342 | -90.82574 | 35055 ft | 489 kts | 152° |
| 2026-04-17 01:26 | 33.23807 | -90.77847 | 35055 ft | 489 kts | 152° |
| 2026-04-17 01:27 | 33.18275 | -90.73124 | 35055 ft | 489 kts | 152° |
| 2026-04-17 01:27 | 33.12741 | -90.68414 | 35048 ft | 488 kts | 152° |
| 2026-04-17 01:28 | 33.07208 | -90.63713 | 35069 ft | 488 kts | 152° |
| 2026-04-17 01:28 | 33.01683 | -90.59015 | 35074 ft | 488 kts | 152° |
| 2026-04-17 01:29 | 32.93387 | -90.51993 | 35074 ft | 488 kts | 153° |
| 2026-04-17 01:30 | 32.87863 | -90.47317 | 35045 ft | 488 kts | 152° |
| 2026-04-17 01:30 | 32.82333 | -90.42640 | 35056 ft | 487 kts | 153° |
| 2026-04-17 01:31 | 32.76803 | -90.37988 | 35053 ft | 487 kts | 153° |
| 2026-04-17 01:31 | 32.71275 | -90.33336 | 35056 ft | 487 kts | 153° |
| 2026-04-17 01:32 | 32.65747 | -90.28682 | 35067 ft | 487 kts | 153° |
| 2026-04-17 01:32 | 32.60217 | -90.24048 | 35048 ft | 487 kts | 152° |
| 2026-04-17 01:33 | 32.54690 | -90.19414 | 35060 ft | 487 kts | 152° |
| 2026-04-17 01:33 | 32.49190 | -90.14813 | 35068 ft | 487 kts | 153° |
| 2026-04-17 01:34 | 32.43677 | -90.10136 | 35072 ft | 491 kts | 148° |
| 2026-04-17 01:34 | 32.38663 | -90.04528 | 35075 ft | 497 kts | 142° |
| 2026-04-17 01:35 | 32.33714 | -89.98805 | 35029 ft | 497 kts | 142° |
| 2026-04-17 01:35 | 32.28756 | -89.93096 | 35064 ft | 497 kts | 143° |
| 2026-04-17 01:36 | 32.24630 | -89.88368 | 35067 ft | 497 kts | 142° |
| 2026-04-17 01:36 | 32.19665 | -89.82673 | 35083 ft | 498 kts | 142° |
| 2026-04-17 01:37 | 32.14702 | -89.76977 | 35090 ft | 498 kts | 142° |
| 2026-04-17 01:37 | 32.09734 | -89.71293 | 35094 ft | 498 kts | 143° |
| 2026-04-17 01:38 | 32.04757 | -89.65617 | 35080 ft | 498 kts | 142° |
| 2026-04-17 01:38 | 31.99777 | -89.59938 | 35086 ft | 498 kts | 142° |
| 2026-04-17 01:39 | 31.94795 | -89.54273 | 35093 ft | 498 kts | 143° |
| 2026-04-17 01:39 | 31.89802 | -89.48601 | 35101 ft | 499 kts | 143° |
| 2026-04-17 01:40 | 31.84807 | -89.42935 | 35112 ft | 499 kts | 143° |
| 2026-04-17 01:40 | 31.79816 | -89.37279 | 35117 ft | 499 kts | 143° |
| 2026-04-17 01:41 | 31.74812 | -89.31623 | 35094 ft | 499 kts | 143° |
| 2026-04-17 01:41 | 31.69806 | -89.25971 | 35104 ft | 499 kts | 143° |
| 2026-04-17 01:42 | 31.64791 | -89.20318 | 35107 ft | 500 kts | 143° |
| 2026-04-17 01:42 | 31.59774 | -89.14679 | 35120 ft | 500 kts | 143° |
| 2026-04-17 01:43 | 31.54753 | -89.09037 | 35123 ft | 500 kts | 143° |
| 2026-04-17 01:43 | 31.49738 | -89.03396 | 35089 ft | 500 kts | 142° |
| 2026-04-17 01:44 | 31.44716 | -88.97769 | 35105 ft | 499 kts | 143° |
| 2026-04-17 01:44 | 31.39727 | -88.92192 | 35120 ft | 499 kts | 143° |
| 2026-04-17 01:45 | 31.34705 | -88.86584 | 35110 ft | 499 kts | 143° |
| 2026-04-17 01:45 | 31.32197 | -88.83787 | 34812 ft | 497 kts | 143° |
| 2026-04-17 01:45 | 31.29677 | -88.80982 | 33691 ft | 505 kts | 142° |
| 2026-04-17 01:45 | 31.27126 | -88.78145 | 32632 ft | 508 kts | 142° |
| 2026-04-17 01:46 | 31.24571 | -88.75296 | 31851 ft | 505 kts | 142° |
| 2026-04-17 01:46 | 31.22052 | -88.72477 | 31196 ft | 499 kts | 142° |
| 2026-04-17 01:46 | 31.19552 | -88.69685 | 30507 ft | 495 kts | 142° |
| 2026-04-17 01:46 | 31.17063 | -88.66920 | 29768 ft | 492 kts | 142° |
| 2026-04-17 01:47 | 31.14599 | -88.64193 | 29097 ft | 485 kts | 142° |
| 2026-04-17 01:47 | 31.12161 | -88.61501 | 28439 ft | 480 kts | 142° |
| 2026-04-17 01:47 | 31.09749 | -88.58838 | 27791 ft | 475 kts | 142° |
| 2026-04-17 01:47 | 31.07362 | -88.56196 | 27149 ft | 471 kts | 141° |
| 2026-04-17 01:48 | 31.04996 | -88.53574 | 26519 ft | 467 kts | 141° |
| 2026-04-17 01:48 | 31.02652 | -88.50980 | 25907 ft | 463 kts | 141° |
| 2026-04-17 01:48 | 31.00323 | -88.48411 | 25306 ft | 459 kts | 141° |
| 2026-04-17 01:48 | 30.98017 | -88.45869 | 24719 ft | 455 kts | 141° |
| 2026-04-17 01:49 | 30.95729 | -88.43351 | 24154 ft | 451 kts | 141° |
| 2026-04-17 01:49 | 30.93458 | -88.40852 | 23569 ft | 447 kts | 141° |
| 2026-04-17 01:49 | 30.91208 | -88.38377 | 22999 ft | 442 kts | 141° |
| 2026-04-17 01:49 | 30.88986 | -88.35929 | 22462 ft | 437 kts | 141° |
| 2026-04-17 01:50 | 30.86788 | -88.33507 | 21921 ft | 433 kts | 140° |
| 2026-04-17 01:50 | 30.84607 | -88.31106 | 21380 ft | 430 kts | 140° |
| 2026-04-17 01:50 | 30.82440 | -88.28721 | 20821 ft | 427 kts | 140° |
| 2026-04-17 01:50 | 30.80292 | -88.26361 | 20356 ft | 422 kts | 140° |
| 2026-04-17 01:51 | 30.78158 | -88.24019 | 19735 ft | 419 kts | 140° |
| 2026-04-17 01:51 | 30.76058 | -88.21717 | 18792 ft | 412 kts | 140° |
| 2026-04-17 01:51 | 30.73991 | -88.19449 | 17824 ft | 406 kts | 140° |
| 2026-04-17 01:51 | 30.71955 | -88.17215 | 16818 ft | 399 kts | 140° |
| 2026-04-17 01:52 | 30.69977 | -88.15050 | 15866 ft | 393 kts | 139° |
| 2026-04-17 01:52 | 30.68001 | -88.12891 | 14926 ft | 387 kts | 139° |
| 2026-04-17 01:52 | 30.66049 | -88.10773 | 14020 ft | 381 kts | 139° |
| 2026-04-17 01:52 | 30.64090 | -88.08665 | 12995 ft | 376 kts | 137° |
| 2026-04-17 01:53 | 30.62432 | -88.06343 | 12076 ft | 371 kts | 127° |
| 2026-04-17 01:53 | 30.60988 | -88.04049 | 11911 ft | 343 kts | 127° |
| 2026-04-17 01:53 | 30.59637 | -88.01891 | 11705 ft | 321 kts | 127° |
| 2026-04-17 01:53 | 30.58344 | -87.99830 | 11204 ft | 312 kts | 127° |
| 2026-04-17 01:54 | 30.57070 | -87.97817 | 10612 ft | 308 kts | 127° |
| 2026-04-17 01:54 | 30.55801 | -87.95831 | 10032 ft | 305 kts | 127° |
| 2026-04-17 01:54 | 30.54536 | -87.93869 | 9342 ft | 302 kts | 127° |
| 2026-04-17 01:54 | 30.53262 | -87.91913 | 8680 ft | 300 kts | 127° |
| 2026-04-17 01:55 | 30.51999 | -87.89993 | 8309 ft | 298 kts | 127° |
| 2026-04-17 01:55 | 30.50761 | -87.88117 | 7988 ft | 294 kts | 127° |
| 2026-04-17 01:55 | 30.49520 | -87.86249 | 7604 ft | 292 kts | 127° |
| 2026-04-17 01:55 | 30.48277 | -87.84400 | 7228 ft | 290 kts | 127° |
| 2026-04-17 01:56 | 30.47039 | -87.82568 | 6895 ft | 286 kts | 127° |
| 2026-04-17 01:56 | 30.45862 | -87.80731 | 6555 ft | 282 kts | 121° |
| 2026-04-17 01:56 | 30.44903 | -87.78772 | 6261 ft | 274 kts | 117° |
| 2026-04-17 01:56 | 30.44024 | -87.76868 | 6140 ft | 262 kts | 116° |
| 2026-04-17 01:57 | 30.43179 | -87.75054 | 6002 ft | 250 kts | 116° |
| 2026-04-17 01:57 | 30.42362 | -87.73329 | 5887 ft | 239 kts | 117° |
| 2026-04-17 01:57 | 30.41582 | -87.71656 | 5663 ft | 234 kts | 116° |
| 2026-04-17 01:57 | 30.40807 | -87.70002 | 5365 ft | 233 kts | 117° |
| 2026-04-17 01:58 | 30.40055 | -87.68363 | 5039 ft | 228 kts | 117° |
| 2026-04-17 01:58 | 30.39318 | -87.66743 | 4557 ft | 227 kts | 117° |
| 2026-04-17 01:58 | 30.38599 | -87.65127 | 4097 ft | 225 kts | 117° |
| 2026-04-17 01:58 | 30.37901 | -87.63519 | 3649 ft | 222 kts | 117° |
| 2026-04-17 01:59 | 30.37219 | -87.61920 | 3191 ft | 220 kts | 117° |
| 2026-04-17 01:59 | 30.36546 | -87.60330 | 3022 ft | 220 kts | 117° |
| 2026-04-17 01:59 | 30.35871 | -87.58730 | 3034 ft | 222 kts | 117° |
| 2026-04-17 01:59 | 30.35203 | -87.57131 | 2903 ft | 219 kts | 117° |
| 2026-04-17 02:00 | 30.34547 | -87.55546 | 2696 ft | 215 kts | 116° |
| 2026-04-17 02:00 | 30.33909 | -87.53986 | 2440 ft | 214 kts | 116° |
| 2026-04-17 02:00 | 30.33086 | -87.52609 | 2182 ft | 206 kts | 145° |
| 2026-04-17 02:00 | 30.31821 | -87.52043 | 2078 ft | 188 kts | 178° |
| 2026-04-17 02:01 | 30.30613 | -87.52326 | 2024 ft | 173 kts | 208° |
| 2026-04-17 02:01 | 30.29733 | -87.53238 | 2003 ft | 172 kts | 236° |
| 2026-04-17 02:01 | 30.29354 | -87.54495 | 1851 ft | 158 kts | 260° |
| 2026-04-17 02:01 | 30.29182 | -87.55674 | 1728 ft | 141 kts | 258° |
| 2026-04-17 02:02 | 30.29096 | -87.56766 | 1538 ft | 135 kts | 265° |
| 2026-04-17 02:02 | 30.29068 | -87.57843 | 1359 ft | 133 kts | 266° |
| 2026-04-17 02:02 | 30.29053 | -87.58908 | 1182 ft | 132 kts | 266° |
| 2026-04-17 02:02 | 30.29045 | -87.59969 | 1007 ft | 132 kts | 266° |
| 2026-04-17 02:03 | 30.29041 | -87.61032 | 833 ft | 133 kts | 268° |
| 2026-04-17 02:03 | 30.29037 | -87.62099 | 678 ft | 134 kts | 268° |
| 2026-04-17 02:03 | 30.29035 | -87.63176 | 505 ft | 134 kts | 269° |
| 2026-04-17 02:03 | 30.29034 | -87.64259 | 325 ft | 135 kts | 269° |
| 2026-04-17 02:04 | 30.29032 | -87.65347 | 127 ft | 136 kts | 270° |
| 2026-04-17 02:04 | 30.29033 | -87.66411 | 26 ft | 120 kts | 270° |
| 2026-04-17 02:04 | 30.29031 | -87.67116 | 23 ft | 43 kts | 270° |
| 2026-04-17 02:04 | 30.29032 | -87.67305 | 24 ft | 11 kts | 267° |
| 2026-04-17 02:05 | 30.28981 | -87.67328 | 25 ft | 8 kts | 181° |
| 2026-04-17 02:05 | 30.28932 | -87.67325 | 25 ft | 6 kts | 161° |
| 2026-04-17 02:05 | 30.28919 | -87.67288 | 26 ft | 5 kts | 91° |
| 2026-04-17 02:05 | 30.28919 | -87.67252 | 25 ft | 4 kts | 89° |
| 2026-04-17 02:06 | 30.28919 | -87.67220 | 25 ft | 3 kts | 99° |
| 2026-04-17 02:06 | 30.28904 | -87.67209 | 27 ft | 2 kts | 153° |
| 2026-04-17 02:06 | 30.28890 | -87.67204 | 25 ft | 2 kts | 168° |
| 2026-04-17 02:06 | 30.28888 | -87.67204 | 25 ft | 0 kts | 169° |
| 2026-04-17 02:08 | 30.28887 | -87.67203 | 25 ft | 2 kts | 169° |
| 2026-04-17 02:08 | 30.28852 | -87.67174 | 25 ft | 7 kts | 124° |
| 2026-04-17 02:08 | 30.28819 | -87.67166 | 29 ft | 3 kts | 180° |
| 2026-04-17 02:08 | 30.28811 | -87.67167 | 27 ft | 0 kts | 181° |